»·PEaware :: N900TB KSBA-KFLG

N900TB :: KSBA-KFLG

FLIGHT INFORMATION

Flight Status: Arrived
Operator: Privately registered:
United States
More flights under this callsign
Pilot: Anonymous 14085 (14085)
Aircraft: SOCATA TBM-900
(TBM9)
More flights by this aircraft type
Origin: KSBA Santa Barbara Mun
United States
Destination: KFLG Flagstaff Pulliam
United States
More flights between these airports :: More routes between these airports
Route: +MISHN3 NNAVY EED DRK
File this flight plan on PilotEdge
Remarks: RMK / SIMBRIEF
Altitude:
(Current/Filed)
29,000ft
Speed:
(Current/Filed)
323kts
Departed: 27-Jul-20 12:21 PM
Arrived: 27-Jul-20 01:51 PM
Distance/Time
Traveled:
405nm/1:30
Distance/Time
To Go:
Arrived

Flight Plot

Page will automatically refresh every two minutes.


Map Options




Map Legend


Flown Route
Filed Route
Departure Airport
Arrival Airport
Navaid (VOR, NDB)
Fix

Horizontal Profiles

Position Reports

Time Latitude Longitude Heading Altitude Ground
Speed
27-Jul-20 12:00 34.423805 -119.837410 168 16ft 0kts
27-Jul-20 12:03 34.422512 -119.836326 168 16ft 0kts
27-Jul-20 12:04 34.422512 -119.836326 168 16ft 0kts
27-Jul-20 12:05 34.422512 -119.836326 168 16ft 0kts
27-Jul-20 12:06 34.422512 -119.836326 168 16ft 0kts
27-Jul-20 12:07 34.422512 -119.836326 168 16ft 0kts
27-Jul-20 12:08 34.422512 -119.836326 168 16ft 0kts
27-Jul-20 12:09 34.422512 -119.836326 168 16ft 0kts
27-Jul-20 12:10 34.422512 -119.836326 168 16ft 0kts
27-Jul-20 12:11 34.422511 -119.836326 168 16ft 0kts
27-Jul-20 12:12 34.422511 -119.836326 168 16ft 0kts
27-Jul-20 12:13 34.422511 -119.836622 301 16ft 2kts
27-Jul-20 12:13 34.424434 -119.837722 342 16ft 19kts
27-Jul-20 12:15 34.427077 -119.834603 351 16ft 0kts
27-Jul-20 12:16 34.427077 -119.834603 351 16ft 0kts
27-Jul-20 12:16 34.427077 -119.834603 351 16ft 0kts
27-Jul-20 12:17 34.427077 -119.834603 351 16ft 0kts
27-Jul-20 12:18 34.427077 -119.834603 351 16ft 0kts
27-Jul-20 12:19 34.427429 -119.834669 350 16ft 11kts
27-Jul-20 12:20 34.426946 -119.858078 263 757ft 110kts
27-Jul-20 12:21 34.425835 -119.899537 265 2787ft 140kts
27-Jul-20 12:22 34.401388 -119.929492 191 5110ft 159kts
27-Jul-20 12:23 34.356841 -119.938467 188 7038ft 166kts
27-Jul-20 12:24 34.320043 -119.906197 135 8822ft 174kts
27-Jul-20 12:25 34.285341 -119.864032 135 10923ft 179kts
27-Jul-20 12:26 34.249672 -119.820683 136 13057ft 184kts
27-Jul-20 12:27 34.230276 -119.765304 93 14928ft 201kts
27-Jul-20 12:28 34.228924 -119.696089 94 16547ft 212kts
27-Jul-20 12:29 34.227137 -119.623948 95 18293ft 218kts
27-Jul-20 12:30 34.225206 -119.549070 95 19816ft 226kts
27-Jul-20 12:31 34.223166 -119.471763 95 21160ft 234kts
27-Jul-20 12:32 34.220998 -119.391694 96 22355ft 241kts
27-Jul-20 12:33 34.228690 -119.310429 74 23420ft 253kts
27-Jul-20 12:34 34.251548 -119.228538 73 24340ft 260kts
27-Jul-20 12:35 34.236876 -119.155606 113 25289ft 254kts
27-Jul-20 12:36 34.255703 -119.074050 40 26019ft 271kts
27-Jul-20 12:37 34.294727 -118.995834 71 27269ft 274kts
27-Jul-20 12:38 34.320097 -118.908856 73 28487ft 281kts
27-Jul-20 12:39 34.346706 -118.815636 73 29044ft 305kts
27-Jul-20 12:40 34.375545 -118.714207 73 29038ft 327kts
27-Jul-20 12:41 34.405429 -118.608779 73 29044ft 334kts
27-Jul-20 12:42 34.435658 -118.501715 73 29048ft 337kts
27-Jul-20 12:43 34.465953 -118.393962 73 29045ft 338kts
27-Jul-20 12:44 34.496186 -118.286043 73 29033ft 338kts
27-Jul-20 12:45 34.526334 -118.177961 73 29037ft 337kts
27-Jul-20 12:46 34.556297 -118.070164 73 29045ft 337kts
27-Jul-20 12:47 34.586142 -117.962386 73 29044ft 337kts
27-Jul-20 12:48 34.615931 -117.854349 73 29037ft 338kts
27-Jul-20 12:49 34.645162 -117.747932 73 29041ft 338kts
27-Jul-20 12:50 34.674787 -117.639689 73 29058ft 338kts
27-Jul-20 12:51 34.704342 -117.531259 73 29068ft 338kts
27-Jul-20 12:52 34.733956 -117.422176 73 29069ft 339kts
27-Jul-20 12:53 34.763385 -117.313357 74 29061ft 339kts
27-Jul-20 12:54 34.792736 -117.204357 74 29048ft 338kts
27-Jul-20 12:55 34.821929 -117.095533 74 29086ft 336kts
27-Jul-20 12:56 34.849755 -116.991368 74 30033ft 315kts
27-Jul-20 12:57 34.876288 -116.891659 75 30979ft 306kts
27-Jul-20 12:58 34.903558 -116.788799 75 31013ft 328kts
27-Jul-20 12:59 34.916963 -116.679058 99 31015ft 331kts
27-Jul-20 13:00 34.910003 -116.566217 99 31008ft 337kts
27-Jul-20 13:01 34.903065 -116.451782 99 31008ft 339kts
27-Jul-20 13:02 34.896006 -116.337069 99 31014ft 339kts
27-Jul-20 13:03 34.888847 -116.222589 99 31036ft 339kts
27-Jul-20 13:04 34.881592 -116.108325 99 31056ft 339kts
27-Jul-20 13:05 34.874193 -115.993461 99 31057ft 339kts
27-Jul-20 13:06 34.866684 -115.878606 99 31058ft 340kts
27-Jul-20 13:07 34.859076 -115.763929 99 31049ft 340kts
27-Jul-20 13:08 34.851344 -115.648995 99 31041ft 341kts
27-Jul-20 13:09 34.843470 -115.533599 99 30972ft 342kts
27-Jul-20 13:10 34.835483 -115.418161 99 30906ft 342kts
27-Jul-20 13:11 34.827395 -115.302811 100 30898ft 341kts
27-Jul-20 13:12 34.819224 -115.187954 100 30900ft 339kts
27-Jul-20 13:13 34.810989 -115.073740 99 30901ft 338kts
27-Jul-20 13:14 34.802677 -114.959899 99 30901ft 336kts
27-Jul-20 13:15 34.794342 -114.847119 99 30901ft 334kts
27-Jul-20 13:16 34.785888 -114.734246 99 30902ft 334kts
27-Jul-20 13:17 34.777361 -114.621806 99 30903ft 334kts
27-Jul-20 13:18 34.768697 -114.508942 99 30903ft 334kts
27-Jul-20 13:19 34.764027 -114.392557 95 29919ft 359kts
27-Jul-20 13:20 34.761120 -114.273929 95 28510ft 368kts
27-Jul-20 13:21 34.757906 -114.149381 95 27013ft 367kts
27-Jul-20 13:22 34.754583 -114.025578 95 25515ft 363kts
27-Jul-20 13:23 34.751264 -113.906161 95 24345ft 344kts
27-Jul-20 13:24 34.747947 -113.791312 96 23328ft 338kts
27-Jul-20 13:25 34.744640 -113.676078 95 21843ft 340kts
27-Jul-20 13:26 34.741035 -113.562088 95 20351ft 334kts
27-Jul-20 13:27 34.737489 -113.450153 95 18861ft 329kts
27-Jul-20 13:28 34.733918 -113.340163 96 17366ft 321kts
27-Jul-20 13:29 34.730326 -113.232716 95 15866ft 316kts
27-Jul-20 13:30 34.726756 -113.128251 95 14620ft 302kts
27-Jul-20 13:31 34.723205 -113.027492 95 13605ft 296kts
27-Jul-20 13:32 34.730533 -112.931722 69 13166ft 286kts
27-Jul-20 13:33 34.759957 -112.842843 69 12870ft 278kts
27-Jul-20 13:34 34.787491 -112.756029 68 12871ft 272kts
27-Jul-20 13:35 34.815865 -112.670511 68 12871ft 271kts
27-Jul-20 13:36 34.844160 -112.585210 68 12872ft 271kts
27-Jul-20 13:37 34.872465 -112.499960 68 12872ft 271kts
27-Jul-20 13:38 34.900838 -112.414709 68 12878ft 271kts
27-Jul-20 13:39 34.928225 -112.328817 69 12902ft 272kts
27-Jul-20 13:40 34.955711 -112.242561 69 12923ft 273kts
27-Jul-20 13:41 34.983311 -112.155962 69 12941ft 274kts
27-Jul-20 13:42 35.010899 -112.069079 69 12962ft 275kts
27-Jul-20 13:43 35.038571 -111.981309 69 12697ft 284kts
27-Jul-20 13:44 35.066267 -111.890538 70 11700ft 284kts
27-Jul-20 13:45 35.089043 -111.800381 75 10356ft 278kts
27-Jul-20 13:46 35.106468 -111.710102 79 9059ft 259kts
27-Jul-20 13:47 35.128283 -111.651508 54 8444ft 110kts
27-Jul-20 13:48 35.152924 -111.633084 337 8352ft 124kts
27-Jul-20 13:49 35.146374 -111.662745 221 6996ft 94kts
27-Jul-20 13:51 35.138991 -111.671107 284 7004ft 17kts
27-Jul-20 13:52 35.138614 -111.672808 221 7004ft 10kts
27-Jul-20 13:53 35.138325 -111.673736 301 7004ft 4kts
27-Jul-20 13:54 35.137588 -111.675025 127 7003ft 0kts
27-Jul-20 13:55 35.137588 -111.675025 127 7003ft 0kts
27-Jul-20 13:56 35.137588 -111.675025 127 7003ft 0kts
27-Jul-20 13:57 35.137588 -111.675025 127 7003ft 0kts
27-Jul-20 13:58 35.137588 -111.675025 127 7003ft 0kts
27-Jul-20 13:59 35.137588 -111.675025 127 7003ft 0kts
27-Jul-20 14:00 35.137588 -111.675025 127 7003ft 0kts

Navigation Log

Ident Type
Flight plan parsing failed, navigation log unavailable